Time;durP1;ratioP1;P1;durP2;ratioP2;P2;SDS_P1;SDS_P2;PMS_P1;PMS_P2;Temp;Humidity;BMP_temperature;BMP_pressure;BME280_temperature;BME280_humidity;BME280_pressure;Samples;Min_cycle;Max_cycle;Signal;HPM_P1;HPM_P2
2021/04/12 00:00:13;;;;;;;4.50;3.10;;;;;;;;;;5026213;28;20087;-51
2021/04/12 00:02:58;;;;;;;5.72;3.22;;;;;;;;;;5024683;28;20087;-49
2021/04/12 00:05:43;;;;;;;4.47;3.33;;;;;;;;;;5031713;28;20544;-49
2021/04/12 00:08:12;;;;;;;3.50;2.97;;;;;;;;;;5031436;28;20576;-50
2021/04/12 00:10:52;;;;;;;3.90;3.40;;;;;;;;;;5030949;28;20061;-49
2021/04/12 00:13:23;;;;;;;4.15;3.30;;;;;;;;;;5031157;28;20017;-49
2021/04/12 00:15:55;;;;;;;6.47;3.90;;;;;;;;;;5031220;28;20053;-49
2021/04/12 00:18:38;;;;;;;3.80;3.28;;;;;;;;;;5028328;28;20511;-49
2021/04/12 00:21:16;;;;;;;3.03;2.50;;;;;;;;;;5031256;28;20092;-49
2021/04/12 00:23:43;;;;;;;4.22;3.15;;;;;;;;;;5025793;28;20033;-50
2021/04/12 00:26:23;;;;;;;5.70;3.53;;;;;;;;;;5030845;28;20038;-49
2021/04/12 00:28:53;;;;;;;4.95;3.35;;;;;;;;;;5028179;28;20532;-49
2021/04/12 00:31:28;;;;;;;5.35;4.00;;;;;;;;;;5030752;28;20030;-55
2021/04/12 00:33:54;;;;;;;4.00;3.13;;;;;;;;;;5031595;28;20021;-49
2021/04/12 00:36:39;;;;;;;4.93;3.33;;;;;;;;;;5031202;28;20076;-52
2021/04/12 00:39:07;;;;;;;6.97;3.75;;;;;;;;;;5031295;28;20543;-52
2021/04/12 00:41:58;;;;;;;12.07;4.10;;;;;;;;;;5030969;28;20185;-51
2021/04/12 00:44:49;;;;;;;4.07;3.25;;;;;;;;;;5030123;28;20365;-50
2021/04/12 00:47:24;;;;;;;5.60;3.63;;;;;;;;;;5030641;28;20029;-49
2021/04/12 00:49:53;;;;;;;5.35;3.63;;;;;;;;;;5032102;28;20033;-50
2021/04/12 00:52:22;;;;;;;6.05;3.53;;;;;;;;;;5030937;28;20231;-52
2021/04/12 00:55:07;;;;;;;7.10;3.83;;;;;;;;;;5031230;28;20104;-50
2021/04/12 00:57:53;;;;;;;4.38;3.78;;;;;;;;;;5028265;28;20652;-49
2021/04/12 01:00:30;;;;;;;7.97;3.97;;;;;;;;;;5033844;28;20117;-49
2021/04/12 01:02:59;;;;;;;4.32;3.47;;;;;;;;;;5034376;28;20129;-49
2021/04/12 01:05:44;;;;;;;5.97;4.10;;;;;;;;;;5034119;28;20136;-48
2021/04/12 01:08:23;;;;;;;6.72;4.20;;;;;;;;;;5031512;28;20061;-50
2021/04/12 01:11:07;;;;;;;6.07;4.22;;;;;;;;;;5033881;28;20618;-48
2021/04/12 01:13:41;;;;;;;5.55;4.35;;;;;;;;;;5034195;28;20029;-47
2021/04/12 01:16:30;;;;;;;8.00;4.50;;;;;;;;;;5034324;28;20036;-49
2021/04/12 01:19:12;;;;;;;7.15;4.68;;;;;;;;;;5028326;28;20026;-48
2021/04/12 01:21:57;;;;;;;7.68;4.43;;;;;;;;;;5033927;28;20025;-48
2021/04/12 01:24:41;;;;;;;6.40;4.95;;;;;;;;;;5033260;28;20030;-48
2021/04/12 01:27:17;;;;;;;9.52;4.50;;;;;;;;;;5030696;28;20051;-50
2021/04/12 01:30:12;;;;;;;6.97;4.20;;;;;;;;;;5032160;28;20466;-48
2021/04/12 01:32:43;;;;;;;6.28;4.88;;;;;;;;;;5034206;28;20025;-49
2021/04/12 01:35:25;;;;;;;7.43;4.93;;;;;;;;;;5033804;28;20184;-48
2021/04/12 01:38:17;;;;;;;7.18;4.78;;;;;;;;;;5032817;28;20034;-48
2021/04/12 01:40:52;;;;;;;7.80;5.15;;;;;;;;;;5032624;28;20040;-48
2021/04/12 01:43:20;;;;;;;8.18;5.32;;;;;;;;;;5027805;28;20108;-48
2021/04/12 01:45:58;;;;;;;7.32;4.53;;;;;;;;;;5020896;28;20021;-48
2021/04/12 01:48:45;;;;;;;10.40;4.68;;;;;;;;;;5033592;28;20017;-48
2021/04/12 01:51:30;;;;;;;4.97;4.38;;;;;;;;;;5033090;28;20461;-48
2021/04/12 01:54:14;;;;;;;6.32;4.30;;;;;;;;;;5021916;28;20486;-50
2021/04/12 01:56:59;;;;;;;6.70;4.32;;;;;;;;;;5030738;28;20468;-47
2021/04/12 01:59:40;;;;;;;6.35;4.13;;;;;;;;;;5033553;28;20128;-48
2021/04/12 02:02:24;;;;;;;6.70;4.07;;;;;;;;;;5021970;28;20033;-49
2021/04/12 02:05:03;;;;;;;7.15;3.40;;;;;;;;;;5033609;28;20030;-48
2021/04/12 02:07:35;;;;;;;7.75;4.03;;;;;;;;;;5033312;28;20030;-51
2021/04/12 02:10:19;;;;;;;5.60;3.83;;;;;;;;;;5031255;28;20037;-48
2021/04/12 02:12:56;;;;;;;4.53;3.53;;;;;;;;;;5033110;28;20042;-49
2021/04/12 02:15:28;;;;;;;6.57;3.72;;;;;;;;;;5033050;28;20064;-49
2021/04/12 02:18:07;;;;;;;6.30;3.95;;;;;;;;;;5031564;28;20040;-53
2021/04/12 02:20:49;;;;;;;7.35;3.97;;;;;;;;;;5033257;28;20048;-48
2021/04/12 02:23:29;;;;;;;6.22;4.03;;;;;;;;;;5032385;28;20026;-48
2021/04/12 02:25:55;;;;;;;5.90;3.92;;;;;;;;;;5032105;28;20029;-52
2021/04/12 02:28:30;;;;;;;7.53;4.50;;;;;;;;;;5033408;28;20164;-48
2021/04/12 02:30:59;;;;;;;5.70;3.92;;;;;;;;;;5032906;28;20419;-51
2021/04/12 02:33:45;;;;;;;4.88;4.00;;;;;;;;;;5033004;28;20034;-48
2021/04/12 02:36:22;;;;;;;6.68;4.00;;;;;;;;;;5022390;28;20034;-48
2021/04/12 02:39:05;;;;;;;7.97;3.67;;;;;;;;;;5032285;28;20021;-50
2021/04/12 02:41:46;;;;;;;3.93;3.30;;;;;;;;;;5026097;28;20067;-52
2021/04/12 02:44:30;;;;;;;6.43;4.25;;;;;;;;;;5032322;28;20037;-52
2021/04/12 02:47:15;;;;;;;6.32;4.68;;;;;;;;;;5030673;28;20021;-48
2021/04/12 02:49:50;;;;;;;10.15;5.07;;;;;;;;;;5028020;28;20030;-51
2021/04/12 02:52:35;;;;;;;9.00;5.15;;;;;;;;;;5032683;28;20033;-49
2021/04/12 02:55:18;;;;;;;10.13;5.10;;;;;;;;;;5032680;28;20032;-48
2021/04/12 02:58:13;;;;;;;6.00;4.07;;;;;;;;;;5024379;28;20032;-49
2021/04/12 03:00:58;;;;;;;9.40;4.60;;;;;;;;;;4956812;28;20066;-49
2021/04/12 03:03:36;;;;;;;8.07;5.03;;;;;;;;;;5032520;28;20441;-49
2021/04/12 03:06:19;;;;;;;7.50;4.53;;;;;;;;;;5032803;28;20038;-48
2021/04/12 03:08:54;;;;;;;5.97;4.30;;;;;;;;;;5031981;28;20037;-50
2021/04/12 03:11:39;;;;;;;8.30;5.38;;;;;;;;;;5042140;28;20150;-48
2021/04/12 03:14:24;;;;;;;9.23;5.22;;;;;;;;;;5032841;28;20025;-48
2021/04/12 03:17:09;;;;;;;9.25;5.05;;;;;;;;;;5032213;28;20048;-48
2021/04/12 03:19:53;;;;;;;9.20;4.88;;;;;;;;;;5027751;28;20029;-50
2021/04/12 03:22:37;;;;;;;8.43;4.55;;;;;;;;;;5035159;28;20040;-48
2021/04/12 03:25:13;;;;;;;10.15;4.57;;;;;;;;;;5028387;28;20021;-49
2021/04/12 03:27:44;;;;;;;9.95;5.50;;;;;;;;;;5031970;28;20105;-48
2021/04/12 03:30:36;;;;;;;6.35;4.68;;;;;;;;;;5034216;28;20462;-49
2021/04/12 03:33:11;;;;;;;6.50;4.40;;;;;;;;;;5027095;28;20042;-48
2021/04/12 03:35:45;;;;;;;13.25;4.20;;;;;;;;;;5031830;28;20025;-48
2021/04/12 03:38:21;;;;;;;6.95;4.05;;;;;;;;;;5032042;28;20109;-48
2021/04/12 03:41:06;;;;;;;6.20;4.07;;;;;;;;;;5030543;28;20021;-49
2021/04/12 03:43:50;;;;;;;6.82;4.45;;;;;;;;;;5033002;28;20064;-48
2021/04/12 03:46:34;;;;;;;8.27;4.13;;;;;;;;;;5022942;28;20034;-48
2021/04/12 03:49:19;;;;;;;4.82;3.47;;;;;;;;;;5031542;28;20099;-48
2021/04/12 03:52:14;;;;;;;7.05;3.72;;;;;;;;;;5031659;28;20060;-48
2021/04/12 03:54:50;;;;;;;9.50;3.70;;;;;;;;;;4960397;28;20047;-49
2021/04/12 03:57:30;;;;;;;9.18;4.25;;;;;;;;;;5020358;28;20030;-49
2021/04/12 04:00:14;;;;;;;5.47;3.38;;;;;;;;;;5031061;28;20045;-48
2021/04/12 04:02:44;;;;;;;4.97;3.55;;;;;;;;;;5024152;28;20083;-48
2021/04/12 04:05:12;;;;;;;8.65;4.53;;;;;;;;;;5030854;28;20678;-48
2021/04/12 04:07:57;;;;;;;9.95;3.40;;;;;;;;;;5031406;28;20021;-49
2021/04/12 04:10:52;;;;;;;6.47;3.78;;;;;;;;;;5031616;28;20064;-50
2021/04/12 04:13:18;;;;;;;6.30;3.50;;;;;;;;;;5028507;28;20041;-49
2021/04/12 04:16:03;;;;;;;7.18;3.97;;;;;;;;;;5031121;28;20030;-53
2021/04/12 04:18:47;;;;;;;6.63;3.47;;;;;;;;;;5028942;28;20060;-48
2021/04/12 04:21:19;;;;;;;14.52;3.90;;;;;;;;;;5029169;28;20081;-48
2021/04/12 04:24:11;;;;;;;4.70;3.20;;;;;;;;;;5031328;28;20033;-50
2021/04/12 04:26:51;;;;;;;8.13;3.63;;;;;;;;;;5030216;28;20101;-47
2021/04/12 04:29:26;;;;;;;6.38;3.45;;;;;;;;;;5030672;28;20099;-48
2021/04/12 04:32:11;;;;;;;5.15;3.88;;;;;;;;;;5021211;28;20469;-48
2021/04/12 04:34:49;;;;;;;5.32;3.30;;;;;;;;;;5032400;28;20041;-49
2021/04/12 04:37:36;;;;;;;7.78;3.47;;;;;;;;;;5026565;28;20089;-50
2021/04/12 04:40:20;;;;;;;6.18;3.28;;;;;;;;;;5035201;28;20425;-48
2021/04/12 04:42:59;;;;;;;8.02;3.63;;;;;;;;;;5034865;28;20036;-48
2021/04/12 04:45:33;;;;;;;5.82;3.10;;;;;;;;;;5034390;28;20025;-51
2021/04/12 04:48:18;;;;;;;6.70;3.47;;;;;;;;;;5034751;28;20665;-50
2021/04/12 04:51:02;;;;;;;4.60;2.95;;;;;;;;;;5033189;28;20033;-48
2021/04/12 04:53:34;;;;;;;4.65;2.50;;;;;;;;;;5033832;28;20115;-48
2021/04/12 04:56:19;;;;;;;3.72;2.47;;;;;;;;;;5033597;28;20663;-49
2021/04/12 04:58:54;;;;;;;6.50;3.30;;;;;;;;;;5033677;28;20121;-48
2021/04/12 05:01:22;;;;;;;4.82;2.95;;;;;;;;;;5034572;28;20385;-47
2021/04/12 05:03:57;;;;;;;7.60;2.75;;;;;;;;;;5034375;28;20080;-48
2021/04/12 05:06:50;;;;;;;2.67;2.15;;;;;;;;;;5034618;28;20461;-48
2021/04/12 05:09:26;;;;;;;6.50;2.50;;;;;;;;;;5031689;28;20052;-50
2021/04/12 05:12:06;;;;;;;4.80;2.28;;;;;;;;;;5032842;28;20040;-48
2021/04/12 05:14:35;;;;;;;5.15;2.30;;;;;;;;;;5034879;28;20496;-49
2021/04/12 05:17:10;;;;;;;5.22;2.28;;;;;;;;;;5033507;28;20029;-48
2021/04/12 05:19:54;;;;;;;6.38;1.98;;;;;;;;;;5034537;28;20079;-48
2021/04/12 05:22:23;;;;;;;2.65;1.80;;;;;;;;;;5027869;28;20116;-49
2021/04/12 05:25:01;;;;;;;7.45;2.40;;;;;;;;;;5032964;28;20029;-49
2021/04/12 05:27:35;;;;;;;5.85;2.63;;;;;;;;;;5033512;28;20560;-52
2021/04/12 05:30:10;;;;;;;3.13;2.10;;;;;;;;;;5034115;28;20025;-49
2021/04/12 05:32:44;;;;;;;6.07;2.25;;;;;;;;;;5032883;28;20112;-48
2021/04/12 05:35:10;;;;;;;3.25;2.10;;;;;;;;;;5034042;28;20481;-51
2021/04/12 05:37:46;;;;;;;5.25;2.33;;;;;;;;;;5034026;28;20033;-48
2021/04/12 05:40:22;;;;;;;6.03;2.10;;;;;;;;;;5033429;28;20112;-48
2021/04/12 05:43:07;;;;;;;4.57;1.75;;;;;;;;;;5034166;28;20053;-48
2021/04/12 05:45:38;;;;;;;4.80;2.28;;;;;;;;;;5031396;28;20136;-48
2021/04/12 05:48:23;;;;;;;3.92;1.95;;;;;;;;;;5033562;28;20021;-49
2021/04/12 05:51:00;;;;;;;3.65;2.20;;;;;;;;;;5031627;28;20112;-48
2021/04/12 05:53:44;;;;;;;3.97;2.00;;;;;;;;;;5026423;28;20495;-49
2021/04/12 05:56:16;;;;;;;6.28;2.60;;;;;;;;;;5028590;28;20545;-50
2021/04/12 05:58:45;;;;;;;3.40;1.98;;;;;;;;;;5033160;28;20057;-49
2021/04/12 06:01:14;;;;;;;3.55;2.28;;;;;;;;;;5032268;28;20057;-51
2021/04/12 06:03:48;;;;;;;6.38;2.60;;;;;;;;;;5030874;28;20108;-52
2021/04/12 06:06:14;;;;;;;;;;;;;;;;;;5033190;28;20104;-50
2021/04/12 06:08:57;;;;;;;4.57;2.33;;;;;;;;;;5033485;28;20404;-48
2021/04/12 06:11:34;;;;;;;4.13;1.80;;;;;;;;;;5029323;28;20030;-52
2021/04/12 06:14:20;;;;;;;8.40;3.08;;;;;;;;;;5027294;28;20128;-49
2021/04/12 06:17:19;;;;;;;4.28;2.40;;;;;;;;;;4981938;28;20064;-48
2021/04/12 06:19:50;;;;;;;3.55;1.75;;;;;;;;;;4979070;28;20037;-51
2021/04/12 06:22:26;;;;;;;3.60;1.98;;;;;;;;;;5032981;28;20149;-48
2021/04/12 06:25:04;;;;;;;6.57;1.90;;;;;;;;;;5027133;28;20072;-49
2021/04/12 06:27:51;;;;;;;6.35;1.90;;;;;;;;;;5030943;28;20711;-53
2021/04/12 06:30:36;;;;;;;5.13;1.35;;;;;;;;;;5028025;28;20112;-48
2021/04/12 06:33:29;;;;;;;4.80;1.75;;;;;;;;;;5032935;28;20485;-48
2021/04/12 06:36:13;;;;;;;6.53;1.80;;;;;;;;;;5033056;28;20049;-48
2021/04/12 06:38:58;;;;;;;5.10;1.40;;;;;;;;;;5032679;28;20044;-48
2021/04/12 06:41:56;;;;;;;6.30;1.73;;;;;;;;;;5032533;28;20025;-48
2021/04/12 06:44:45;;;;;;;3.08;1.25;;;;;;;;;;5027205;28;20089;-48
2021/04/12 06:47:30;;;;;;;4.93;1.70;;;;;;;;;;5031058;28;20469;-49
2021/04/12 06:50:15;;;;;;;4.50;1.55;;;;;;;;;;5032807;28;20026;-48
2021/04/12 06:53:07;;;;;;;4.70;1.38;;;;;;;;;;5033092;28;20083;-48
2021/04/12 06:55:52;;;;;;;4.63;1.45;;;;;;;;;;5021389;28;20421;-49
2021/04/12 06:58:37;;;;;;;3.47;1.20;;;;;;;;;;5028727;28;20029;-52
2021/04/12 07:01:03;;;;;;;4.80;1.10;;;;;;;;;;5031716;28;20021;-48
2021/04/12 07:03:56;;;;;;;1.80;0.90;;;;;;;;;;5031735;28;20032;-49
2021/04/12 07:06:41;;;;;;;2.40;1.15;;;;;;;;;;5031374;28;20033;-48
2021/04/12 07:09:07;;;;;;;4.72;1.20;;;;;;;;;;5028177;28;20061;-47
2021/04/12 07:11:52;;;;;;;6.85;2.15;;;;;;;;;;5032318;28;20040;-49
2021/04/12 07:14:38;;;;;;;4.20;1.10;;;;;;;;;;5031718;28;20032;-48
2021/04/12 07:17:22;;;;;;;3.75;1.05;;;;;;;;;;5023880;28;20030;-48
2021/04/12 07:19:54;;;;;;;5.90;1.30;;;;;;;;;;5025633;28;20030;-48
2021/04/12 07:22:23;;;;;;;4.45;1.23;;;;;;;;;;5029817;28;20028;-48
2021/04/12 07:25:09;;;;;;;7.65;1.50;;;;;;;;;;5029961;28;20029;-48
2021/04/12 07:27:54;;;;;;;4.88;1.20;;;;;;;;;;5024955;28;20057;-48
2021/04/12 07:30:39;;;;;;;5.68;1.60;;;;;;;;;;5029797;28;20490;-48
2021/04/12 07:33:38;;;;;;;8.85;1.50;;;;;;;;;;5031633;28;20029;-48
2021/04/12 07:36:23;;;;;;;6.95;2.10;;;;;;;;;;5031295;28;20461;-48
2021/04/12 07:39:04;;;;;;;4.75;1.80;;;;;;;;;;5025855;28;20280;-48
2021/04/12 07:41:45;;;;;;;3.40;1.55;;;;;;;;;;5030939;28;20038;-48
2021/04/12 07:44:30;;;;;;;6.55;1.90;;;;;;;;;;5025397;28;20383;-49
2021/04/12 07:47:08;;;;;;;7.60;1.70;;;;;;;;;;5020048;28;20442;-48
2021/04/12 07:50:02;;;;;;;2.97;1.60;;;;;;;;;;5030679;28;20022;-51
2021/04/12 07:52:28;;;;;;;5.32;1.67;;;;;;;;;;5029187;28;20049;-49
2021/04/12 07:55:18;;;;;;;5.60;1.60;;;;;;;;;;5028797;28;20029;-51
2021/04/12 07:58:03;;;;;;;5.80;1.48;;;;;;;;;;5019963;28;20026;-49
2021/04/12 08:00:44;;;;;;;5.30;2.10;;;;;;;;;;5029817;28;20120;-50
2021/04/12 08:03:19;;;;;;;3.17;1.40;;;;;;;;;;5029960;28;20598;-48
2021/04/12 08:06:05;;;;;;;4.35;1.80;;;;;;;;;;5012199;28;20034;-48
2021/04/12 08:08:39;;;;;;;2.67;1.83;;;;;;;;;;5032264;28;20036;-51
2021/04/12 08:11:04;;;;;;;;;;;;;;;;;;5017334;28;20158;-48
2021/04/12 08:13:43;;;;;;;4.97;1.65;;;;;;;;;;5034189;28;20012;-48
2021/04/12 08:16:27;;;;;;;3.45;1.70;;;;;;;;;;5020261;28;20124;-49
2021/04/12 08:19:12;;;;;;;4.15;1.52;;;;;;;;;;5034471;28;20143;-49
2021/04/12 08:22:07;;;;;;;7.38;2.00;;;;;;;;;;5029236;28;20477;-50
2021/04/12 08:24:44;;;;;;;4.25;1.27;;;;;;;;;;5033604;28;20057;-48
2021/04/12 08:27:38;;;;;;;7.05;1.92;;;;;;;;;;5033559;28;20049;-48
2021/04/12 08:30:23;;;;;;;5.93;1.83;;;;;;;;;;5031120;28;20029;-49
2021/04/12 08:33:01;;;;;;;2.90;1.30;;;;;;;;;;5034667;28;20064;-49
2021/04/12 08:35:46;;;;;;;5.60;1.40;;;;;;;;;;5013408;28;20075;-48
2021/04/12 08:38:30;;;;;;;9.07;2.45;;;;;;;;;;5031592;28;20424;-49
2021/04/12 08:41:13;;;;;;;4.82;1.60;;;;;;;;;;5033862;28;20033;-48
2021/04/12 08:43:58;;;;;;;2.85;1.80;;;;;;;;;;5034298;28;20576;-49
2021/04/12 08:46:36;;;;;;;3.70;1.33;;;;;;;;;;5034324;28;20152;-48
2021/04/12 08:49:10;;;;;;;2.92;1.42;;;;;;;;;;5033835;28;20030;-48
2021/04/12 08:52:05;;;;;;;5.03;1.60;;;;;;;;;;5031652;28;20063;-48
2021/04/12 08:54:49;;;;;;;2.67;1.33;;;;;;;;;;4946027;28;20047;-49
2021/04/12 08:57:21;;;;;;;3.50;1.33;;;;;;;;;;5015516;28;20091;-48
2021/04/12 09:00:06;;;;;;;7.97;1.75;;;;;;;;;;5033758;28;20076;-48
2021/04/12 09:02:54;;;;;;;8.48;1.90;;;;;;;;;;5025673;28;20470;-48
2021/04/12 09:05:38;;;;;;;8.05;1.20;;;;;;;;;;5033413;28;20068;-48
2021/04/12 09:08:14;;;;;;;2.25;1.23;;;;;;;;;;5033718;28;20029;-50
2021/04/12 09:10:58;;;;;;;5.57;1.63;;;;;;;;;;5032629;28;20068;-48
2021/04/12 09:13:49;;;;;;;2.70;0.98;;;;;;;;;;5030315;28;20036;-48
2021/04/12 09:16:16;;;;;;;3.83;1.33;;;;;;;;;;5033518;28;20481;-50
2021/04/12 09:18:42;;;;;;;3.90;1.20;;;;;;;;;;5033105;28;20104;-48
2021/04/12 09:21:22;;;;;;;2.97;1.00;;;;;;;;;;5033146;28;20037;-48
2021/04/12 09:24:01;;;;;;;2.63;0.90;;;;;;;;;;5026739;28;20474;-48
2021/04/12 09:26:46;;;;;;;2.08;1.30;;;;;;;;;;5032417;28;20017;-48
2021/04/12 09:29:24;;;;;;;3.67;1.30;;;;;;;;;;5032904;28;20033;-49
2021/04/12 09:32:08;;;;;;;6.65;1.48;;;;;;;;;;5030545;28;20044;-48
2021/04/12 09:34:56;;;;;;;1.98;1.40;;;;;;;;;;5023588;28;20037;-49
2021/04/12 09:37:49;;;;;;;3.20;0.85;;;;;;;;;;5030818;28;20037;-48
2021/04/12 09:40:18;;;;;;;4.37;1.10;;;;;;;;;;5032433;28;20033;-49
2021/04/12 09:43:00;;;;;;;1.33;1.05;;;;;;;;;;5030012;28;20371;-48
2021/04/12 09:45:38;;;;;;;2.05;0.73;;;;;;;;;;5032578;28;20041;-48
2021/04/12 09:48:23;;;;;;;5.38;1.20;;;;;;;;;;5031311;28;20366;-48
2021/04/12 09:51:12;;;;;;;7.78;1.17;;;;;;;;;;5025889;28;20124;-49
2021/04/12 09:53:59;;;;;;;6.95;1.40;;;;;;;;;;5033067;28;20034;-48
2021/04/12 09:56:34;;;;;;;9.65;1.00;;;;;;;;;;5028788;28;20034;-48
2021/04/12 09:59:21;;;;;;;5.03;1.17;;;;;;;;;;5029234;28;20054;-48
2021/04/12 10:01:47;;;;;;;5.07;0.95;;;;;;;;;;5027475;28;20896;-49
2021/04/12 10:04:33;;;;;;;6.78;1.33;;;;;;;;;;5032642;28;20025;-54
2021/04/12 10:07:17;;;;;;;8.55;1.10;;;;;;;;;;5029739;28;20088;-50
2021/04/12 10:10:10;;;;;;;3.50;1.20;;;;;;;;;;5030385;28;20025;-49
2021/04/12 10:12:36;;;;;;;5.18;0.95;;;;;;;;;;5017627;28;20047;-49
2021/04/12 10:15:08;;;;;;;7.10;1.15;;;;;;;;;;5025561;28;20026;-49
2021/04/12 10:17:45;;;;;;;4.22;1.50;;;;;;;;;;5028164;28;20076;-48
2021/04/12 10:20:20;;;;;;;4.00;1.10;;;;;;;;;;5027583;28;20041;-48
2021/04/12 10:22:51;;;;;;;2.97;0.93;;;;;;;;;;5027228;28;20027;-50
2021/04/12 10:25:27;;;;;;;4.38;0.90;;;;;;;;;;5009552;28;20100;-48
2021/04/12 10:27:57;;;;;;;3.42;1.05;;;;;;;;;;5011603;28;20049;-48
2021/04/12 10:30:25;;;;;;;4.43;0.85;;;;;;;;;;5023545;28;20049;-51
2021/04/12 10:32:54;;;;;;;2.80;0.80;;;;;;;;;;5027514;28;20041;-50
2021/04/12 10:35:25;;;;;;;2.88;0.90;;;;;;;;;;5029560;28;20099;-48
2021/04/12 10:38:09;;;;;;;3.05;0.90;;;;;;;;;;5027640;28;20033;-49
2021/04/12 10:40:44;;;;;;;3.95;0.73;;;;;;;;;;5028316;28;20025;-50
2021/04/12 10:43:11;;;;;;;5.70;1.13;;;;;;;;;;5028722;28;20057;-53
2021/04/12 10:45:43;;;;;;;3.03;0.98;;;;;;;;;;5008050;28;20574;-48
2021/04/12 10:48:09;;;;;;;2.88;1.10;;;;;;;;;;5029101;28;20025;-52
2021/04/12 10:50:35;;;;;;;3.30;0.82;;;;;;;;;;5021408;28;20082;-48
2021/04/12 10:53:31;;;;;;;7.22;1.30;;;;;;;;;;5075306;27;20431;-49
2021/04/12 10:56:06;;;;;;;4.85;1.30;;;;;;;;;;5067876;28;20029;-50
2021/04/12 10:58:58;;;;;;;3.20;0.90;;;;;;;;;;5075924;28;20017;-49
2021/04/12 11:01:33;;;;;;;5.55;1.10;;;;;;;;;;5051272;28;20076;-49
2021/04/12 11:03:59;;;;;;;3.38;0.90;;;;;;;;;;5066892;28;20115;-49
2021/04/12 11:06:42;;;;;;;3.97;1.10;;;;;;;;;;5068882;28;20032;-49
2021/04/12 11:09:12;;;;;;;2.25;0.70;;;;;;;;;;5067613;28;20033;-49
2021/04/12 11:11:53;;;;;;;4.35;0.90;;;;;;;;;;5067348;28;20782;-49
2021/04/12 11:14:23;;;;;;;3.00;0.90;;;;;;;;;;5061256;28;20057;-49
2021/04/12 11:16:57;;;;;;;4.32;0.80;;;;;;;;;;5068463;28;20366;-48
2021/04/12 11:19:27;;;;;;;4.30;0.95;;;;;;;;;;5062163;28;20020;-51
2021/04/12 11:22:02;;;;;;;4.60;1.10;;;;;;;;;;5071401;28;20081;-49
2021/04/12 11:24:43;;;;;;;4.07;0.98;;;;;;;;;;5055552;28;20521;-52
2021/04/12 11:27:28;;;;;;;3.60;0.98;;;;;;;;;;5065492;28;20043;-49
2021/04/12 11:30:04;;;;;;;4.10;0.90;;;;;;;;;;5054077;28;20041;-50
2021/04/12 11:32:49;;;;;;;6.10;1.10;;;;;;;;;;5053205;28;20033;-49
2021/04/12 11:35:18;;;;;;;3.75;1.05;;;;;;;;;;5067035;28;20492;-49
2021/04/12 11:38:05;;;;;;;2.55;0.77;;;;;;;;;;5061484;28;20029;-49
2021/04/12 11:40:36;;;;;;;5.38;0.70;;;;;;;;;;5074768;28;20118;-49
2021/04/12 11:43:07;;;;;;;3.22;0.77;;;;;;;;;;5059349;28;20035;-49
2021/04/12 11:45:51;;;;;;;4.70;1.00;;;;;;;;;;5061641;28;20029;-49
2021/04/12 11:48:49;;;;;;;7.20;1.23;;;;;;;;;;5060573;28;20115;-49
2021/04/12 11:51:23;;;;;;;1.98;0.82;;;;;;;;;;5042581;28;20053;-50
2021/04/12 11:53:54;;;;;;;1.25;0.68;;;;;;;;;;5065015;28;20159;-49
2021/04/12 11:56:36;;;;;;;8.10;1.00;;;;;;;;;;5064307;28;20025;-51
2021/04/12 11:59:11;;;;;;;2.67;0.80;;;;;;;;;;5064760;28;20043;-49
2021/04/12 12:01:41;;;;;;;5.30;0.73;;;;;;;;;;5060876;28;20052;-50
2021/04/12 12:04:31;;;;;;;2.92;0.80;;;;;;;;;;5038491;28;20112;-51
2021/04/12 12:07:17;;;;;;;1.83;0.70;;;;;;;;;;5040206;28;20041;-50
2021/04/12 12:09:51;;;;;;;3.08;0.63;;;;;;;;;;5052227;28;20041;-49
2021/04/12 12:12:30;;;;;;;4.25;0.90;;;;;;;;;;5057442;28;20043;-49
2021/04/12 12:15:05;;;;;;;3.20;0.93;;;;;;;;;;5044302;28;20086;-46
2021/04/12 12:17:35;;;;;;;7.13;0.82;;;;;;;;;;5051279;28;20024;-47
2021/04/12 12:20:07;;;;;;;3.45;0.80;;;;;;;;;;5046124;28;20103;-46
2021/04/12 12:22:56;;;;;;;2.53;0.57;;;;;;;;;;5042966;28;20039;-46
2021/04/12 12:25:44;;;;;;;2.90;1.27;;;;;;;;;;5043627;28;20076;-47
2021/04/12 12:28:19;;;;;;;5.28;0.95;;;;;;;;;;5046839;28;20784;-46
2021/04/12 12:30:53;;;;;;;2.95;0.82;;;;;;;;;;5038701;28;20367;-46
2021/04/12 12:33:26;;;;;;;3.55;0.90;;;;;;;;;;5047387;28;20096;-47
2021/04/12 12:36:02;;;;;;;3.35;0.82;;;;;;;;;;5053526;28;20064;-49
2021/04/12 12:38:38;;;;;;;3.53;0.82;;;;;;;;;;5043142;28;20028;-50
2021/04/12 12:41:11;;;;;;;3.00;0.65;;;;;;;;;;5039386;28;20381;-49
2021/04/12 12:43:38;;;;;;;4.95;0.73;;;;;;;;;;5046665;28;20053;-50
2021/04/12 12:46:07;;;;;;;4.57;0.80;;;;;;;;;;5050075;28;20075;-51
2021/04/12 12:48:35;;;;;;;5.07;0.80;;;;;;;;;;5047148;28;20017;-47
2021/04/12 12:51:12;;;;;;;4.47;0.60;;;;;;;;;;5048367;28;20033;-46
2021/04/12 12:53:41;;;;;;;5.35;0.90;;;;;;;;;;5047311;28;20025;-48
2021/04/12 12:56:16;;;;;;;3.15;0.82;;;;;;;;;;5047412;28;20357;-48
2021/04/12 12:58:53;;;;;;;5.88;0.80;;;;;;;;;;5047784;28;20522;-47
2021/04/12 13:01:25;;;;;;;3.10;0.80;;;;;;;;;;5052082;28;20045;-48
2021/04/12 13:03:53;;;;;;;3.03;0.82;;;;;;;;;;5049474;28;20020;-46
2021/04/12 13:06:21;;;;;;;2.55;0.80;;;;;;;;;;5049036;28;20108;-47
2021/04/12 13:08:58;;;;;;;10.50;0.90;;;;;;;;;;5054396;28;20020;-48
2021/04/12 13:11:41;;;;;;;4.95;1.10;;;;;;;;;;5042253;28;20044;-47
2021/04/12 13:14:26;;;;;;;3.03;0.83;;;;;;;;;;5040405;28;20025;-46
2021/04/12 13:16:52;;;;;;;5.80;1.15;;;;;;;;;;5049010;28;20021;-49
2021/04/12 13:19:21;;;;;;;2.22;0.80;;;;;;;;;;5047694;28;20021;-50
2021/04/12 13:22:05;;;;;;;3.63;1.00;;;;;;;;;;5048675;28;20029;-50
2021/04/12 13:24:36;;;;;;;3.10;0.88;;;;;;;;;;5042011;28;20056;-52
2021/04/12 13:27:04;;;;;;;4.10;0.88;;;;;;;;;;5046581;28;20052;-50
2021/04/12 13:29:35;;;;;;;2.08;0.70;;;;;;;;;;5048175;28;20112;-51
2021/04/12 13:32:09;;;;;;;2.90;0.90;;;;;;;;;;5051400;28;20907;-49
2021/04/12 13:34:50;;;;;;;1.50;0.63;;;;;;;;;;5051346;28;20045;-48
2021/04/12 13:37:24;;;;;;;2.20;0.57;;;;;;;;;;5043687;28;20051;-47
2021/04/12 13:39:55;;;;;;;5.15;0.70;;;;;;;;;;5046847;28;20028;-51
2021/04/12 13:42:23;;;;;;;3.53;0.70;;;;;;;;;;5046554;28;20566;-49
2021/04/12 13:44:52;;;;;;;4.82;0.90;;;;;;;;;;5050792;28;20115;-49
2021/04/12 13:47:27;;;;;;;2.38;0.80;;;;;;;;;;5052299;28;20047;-49
2021/04/12 13:49:56;;;;;;;3.40;0.82;;;;;;;;;;5050714;28;20098;-49
2021/04/12 13:52:25;;;;;;;4.03;0.80;;;;;;;;;;5039607;28;20038;-48
2021/04/12 13:54:57;;;;;;;3.35;0.75;;;;;;;;;;5045680;28;20556;-49
2021/04/12 13:57:31;;;;;;;3.83;0.80;;;;;;;;;;5048637;28;20498;-48
2021/04/12 14:00:09;;;;;;;2.25;0.50;;;;;;;;;;5058756;28;20025;-48
2021/04/12 14:02:41;;;;;;;2.58;0.95;;;;;;;;;;5038479;28;20049;-49
2021/04/12 14:05:12;;;;;;;2.47;0.70;;;;;;;;;;5054475;28;20033;-49
2021/04/12 14:07:42;;;;;;;4.45;0.60;;;;;;;;;;5050743;28;20033;-46
2021/04/12 14:10:13;;;;;;;1.10;0.50;;;;;;;;;;5050480;28;20484;-50
2021/04/12 14:12:47;;;;;;;4.80;0.90;;;;;;;;;;5053241;28;20056;-51
2021/04/12 14:15:14;;;;;;;3.17;0.60;;;;;;;;;;5049544;28;20037;-49
2021/04/12 14:17:47;;;;;;;4.85;0.75;;;;;;;;;;5046403;28;20094;-48
2021/04/12 14:20:32;;;;;;;3.83;0.85;;;;;;;;;;5042251;28;20104;-46
2021/04/12 14:23:02;;;;;;;3.55;0.73;;;;;;;;;;5043983;28;20392;-47
2021/04/12 14:25:32;;;;;;;4.90;0.77;;;;;;;;;;5042117;28;20033;-47
2021/04/12 14:28:07;;;;;;;4.15;0.90;;;;;;;;;;5043282;28;20052;-51
2021/04/12 14:30:35;;;;;;;3.55;0.95;;;;;;;;;;5054986;28;20029;-48
2021/04/12 14:33:03;;;;;;;4.22;0.80;;;;;;;;;;5043122;28;20477;-46
2021/04/12 14:35:31;;;;;;;2.88;1.05;;;;;;;;;;5056581;28;20500;-47
2021/04/12 14:38:08;;;;;;;2.25;0.98;;;;;;;;;;5037963;28;20037;-47
2021/04/12 14:40:35;;;;;;;5.50;0.80;;;;;;;;;;5045823;28;20124;-46
2021/04/12 14:43:03;;;;;;;2.33;0.70;;;;;;;;;;5037531;28;20037;-47
2021/04/12 14:45:33;;;;;;;6.30;0.80;;;;;;;;;;5037064;28;20537;-48
2021/04/12 14:48:19;;;;;;;3.13;0.88;;;;;;;;;;5043509;28;20029;-47
2021/04/12 14:50:50;;;;;;;3.78;1.02;;;;;;;;;;5041538;28;20078;-46
2021/04/12 14:53:25;;;;;;;2.00;0.43;;;;;;;;;;5039408;28;20150;-46
2021/04/12 14:55:55;;;;;;;2.60;0.80;;;;;;;;;;5046570;28;20108;-48
2021/04/12 14:58:31;;;;;;;2.72;0.70;;;;;;;;;;5037741;28;20033;-46
2021/04/12 15:01:03;;;;;;;2.45;0.77;;;;;;;;;;5045078;28;20070;-47
2021/04/12 15:03:40;;;;;;;2.83;0.80;;;;;;;;;;5036139;28;20422;-46
2021/04/12 15:06:27;;;;;;;3.47;0.70;;;;;;;;;;5042977;28;20030;-46
2021/04/12 15:08:58;;;;;;;3.10;0.80;;;;;;;;;;5048110;28;20021;-48
2021/04/12 15:11:29;;;;;;;2.47;1.10;;;;;;;;;;5042607;28;20033;-48
2021/04/12 15:14:13;;;;;;;5.68;0.88;;;;;;;;;;5043423;28;20028;-52
2021/04/12 15:16:54;;;;;;;3.63;1.00;;;;;;;;;;5039959;28;20025;-50
2021/04/12 15:19:22;;;;;;;6.05;1.17;;;;;;;;;;5042920;28;20647;-50
2021/04/12 15:21:51;;;;;;;3.28;0.70;;;;;;;;;;5036421;28;20083;-49
2021/04/12 15:24:20;;;;;;;1.58;0.82;;;;;;;;;;5046151;28;20805;-51
2021/04/12 15:26:48;;;;;;;5.18;1.17;;;;;;;;;;5047402;28;20025;-50
2021/04/12 15:29:32;;;;;;;5.68;0.93;;;;;;;;;;5039395;28;20045;-51
2021/04/12 15:32:16;;;;;;;4.85;0.98;;;;;;;;;;5040480;28;20131;-46
2021/04/12 15:34:44;;;;;;;5.00;0.98;;;;;;;;;;5050803;28;20106;-46
2021/04/12 15:37:21;;;;;;;3.35;1.27;;;;;;;;;;5043197;28;20123;-49
2021/04/12 15:39:49;;;;;;;4.75;1.35;;;;;;;;;;5049079;28;20025;-47
2021/04/12 15:42:22;;;;;;;3.40;1.10;;;;;;;;;;5047243;28;20090;-47
2021/04/12 15:44:50;;;;;;;3.53;0.80;;;;;;;;;;5050215;28;20112;-49
2021/04/12 15:47:20;;;;;;;5.18;1.05;;;;;;;;;;5045307;28;20371;-47